sensor_id;sensor_type;location;lat;lon;timestamp;P1;durP1;ratioP1;P2;durP2;ratioP2
47455;SDS011;33202;48.512;-2.780;2024-03-17T00:01:50;13.88;;;3.10;;
47455;SDS011;33202;48.512;-2.780;2024-03-17T00:04:16;12.02;;;3.20;;
47455;SDS011;33202;48.512;-2.780;2024-03-17T00:06:42;13.57;;;2.95;;
47455;SDS011;33202;48.512;-2.780;2024-03-17T00:09:08;10.65;;;2.95;;
47455;SDS011;33202;48.512;-2.780;2024-03-17T00:11:34;13.80;;;3.13;;
47455;SDS011;33202;48.512;-2.780;2024-03-17T00:14:01;10.57;;;2.70;;
47455;SDS011;33202;48.512;-2.780;2024-03-17T00:16:27;9.70;;;2.73;;
47455;SDS011;33202;48.512;-2.780;2024-03-17T00:18:53;9.68;;;2.95;;
47455;SDS011;33202;48.512;-2.780;2024-03-17T00:23:49;8.50;;;2.60;;
47455;SDS011;33202;48.512;-2.780;2024-03-17T00:26:15;11.43;;;2.53;;
47455;SDS011;33202;48.512;-2.780;2024-03-17T00:28:41;12.55;;;3.10;;
47455;SDS011;33202;48.512;-2.780;2024-03-17T00:31:11;7.75;;;2.78;;
47455;SDS011;33202;48.512;-2.780;2024-03-17T00:33:37;8.52;;;2.40;;
47455;SDS011;33202;48.512;-2.780;2024-03-17T00:36:03;13.48;;;2.92;;
47455;SDS011;33202;48.512;-2.780;2024-03-17T00:38:29;9.40;;;2.38;;
47455;SDS011;33202;48.512;-2.780;2024-03-17T00:40:55;8.68;;;2.70;;
47455;SDS011;33202;48.512;-2.780;2024-03-17T00:43:21;14.73;;;3.08;;
47455;SDS011;33202;48.512;-2.780;2024-03-17T00:45:53;14.05;;;3.08;;
47455;SDS011;33202;48.512;-2.780;2024-03-17T00:48:19;13.05;;;3.53;;
47455;SDS011;33202;48.512;-2.780;2024-03-17T00:50:45;13.13;;;2.70;;
47455;SDS011;33202;48.512;-2.780;2024-03-17T00:53:12;11.25;;;3.20;;
47455;SDS011;33202;48.512;-2.780;2024-03-17T00:55:39;12.53;;;3.03;;
47455;SDS011;33202;48.512;-2.780;2024-03-17T00:58:05;13.48;;;3.13;;
47455;SDS011;33202;48.512;-2.780;2024-03-17T01:00:31;8.38;;;2.92;;
47455;SDS011;33202;48.512;-2.780;2024-03-17T01:03:00;10.10;;;2.83;;
47455;SDS011;33202;48.512;-2.780;2024-03-17T01:05:26;13.27;;;2.97;;
47455;SDS011;33202;48.512;-2.780;2024-03-17T01:07:52;13.77;;;2.72;;
47455;SDS011;33202;48.512;-2.780;2024-03-17T01:10:18;11.38;;;3.00;;
47455;SDS011;33202;48.512;-2.780;2024-03-17T01:12:44;12.18;;;2.78;;
47455;SDS011;33202;48.512;-2.780;2024-03-17T01:15:10;8.90;;;2.45;;
47455;SDS011;33202;48.512;-2.780;2024-03-17T01:17:36;12.57;;;2.20;;
47455;SDS011;33202;48.512;-2.780;2024-03-17T01:20:02;13.73;;;2.72;;
47455;SDS011;33202;48.512;-2.780;2024-03-17T01:22:29;10.15;;;2.65;;
47455;SDS011;33202;48.512;-2.780;2024-03-17T01:24:55;13.73;;;3.13;;
47455;SDS011;33202;48.512;-2.780;2024-03-17T01:27:21;9.75;;;2.42;;
47455;SDS011;33202;48.512;-2.780;2024-03-17T01:29:47;12.25;;;2.33;;
47455;SDS011;33202;48.512;-2.780;2024-03-17T01:32:13;8.88;;;2.78;;
47455;SDS011;33202;48.512;-2.780;2024-03-17T01:34:39;11.23;;;2.63;;
47455;SDS011;33202;48.512;-2.780;2024-03-17T01:37:05;8.70;;;2.13;;
47455;SDS011;33202;48.512;-2.780;2024-03-17T01:39:31;10.52;;;3.00;;
47455;SDS011;33202;48.512;-2.780;2024-03-17T01:41:58;11.23;;;2.50;;
47455;SDS011;33202;48.512;-2.780;2024-03-17T01:44:26;8.32;;;1.98;;
47455;SDS011;33202;48.512;-2.780;2024-03-17T01:46:52;8.60;;;2.42;;
47455;SDS011;33202;48.512;-2.780;2024-03-17T01:49:19;8.20;;;2.50;;
47455;SDS011;33202;48.512;-2.780;2024-03-17T01:51:46;8.48;;;1.92;;
47455;SDS011;33202;48.512;-2.780;2024-03-17T01:54:12;6.03;;;1.75;;
47455;SDS011;33202;48.512;-2.780;2024-03-17T01:56:39;8.35;;;2.05;;
47455;SDS011;33202;48.512;-2.780;2024-03-17T01:59:05;8.20;;;2.30;;
47455;SDS011;33202;48.512;-2.780;2024-03-17T02:01:31;9.10;;;2.30;;
47455;SDS011;33202;48.512;-2.780;2024-03-17T02:03:58;10.13;;;2.25;;
47455;SDS011;33202;48.512;-2.780;2024-03-17T02:06:24;8.15;;;1.90;;
47455;SDS011;33202;48.512;-2.780;2024-03-17T02:08:51;7.07;;;1.50;;
47455;SDS011;33202;48.512;-2.780;2024-03-17T02:11:25;5.80;;;1.40;;
47455;SDS011;33202;48.512;-2.780;2024-03-17T02:13:52;7.65;;;2.20;;
47455;SDS011;33202;48.512;-2.780;2024-03-17T02:16:18;5.75;;;1.60;;
47455;SDS011;33202;48.512;-2.780;2024-03-17T02:18:45;4.85;;;1.23;;
47455;SDS011;33202;48.512;-2.780;2024-03-17T02:21:14;6.13;;;1.83;;
47455;SDS011;33202;48.512;-2.780;2024-03-17T02:23:43;8.85;;;1.92;;
47455;SDS011;33202;48.512;-2.780;2024-03-17T02:26:10;8.05;;;1.75;;
47455;SDS011;33202;48.512;-2.780;2024-03-17T02:28:43;5.63;;;1.23;;
47455;SDS011;33202;48.512;-2.780;2024-03-17T02:31:10;5.00;;;1.15;;
47455;SDS011;33202;48.512;-2.780;2024-03-17T02:33:36;5.40;;;1.42;;
47455;SDS011;33202;48.512;-2.780;2024-03-17T02:36:03;7.10;;;1.40;;
47455;SDS011;33202;48.512;-2.780;2024-03-17T02:38:32;9.38;;;1.73;;
47455;SDS011;33202;48.512;-2.780;2024-03-17T02:41:16;3.92;;;0.95;;
47455;SDS011;33202;48.512;-2.780;2024-03-17T02:43:42;8.80;;;1.63;;
47455;SDS011;33202;48.512;-2.780;2024-03-17T02:46:15;5.30;;;1.30;;
47455;SDS011;33202;48.512;-2.780;2024-03-17T02:48:42;4.65;;;1.20;;
47455;SDS011;33202;48.512;-2.780;2024-03-17T02:51:16;3.95;;;1.27;;
47455;SDS011;33202;48.512;-2.780;2024-03-17T02:53:43;5.80;;;1.60;;
47455;SDS011;33202;48.512;-2.780;2024-03-17T02:56:12;3.80;;;1.10;;
47455;SDS011;33202;48.512;-2.780;2024-03-17T02:58:41;4.70;;;1.17;;
47455;SDS011;33202;48.512;-2.780;2024-03-17T03:01:07;5.85;;;1.10;;
47455;SDS011;33202;48.512;-2.780;2024-03-17T03:03:34;4.60;;;1.13;;
47455;SDS011;33202;48.512;-2.780;2024-03-17T03:06:01;5.65;;;1.42;;
47455;SDS011;33202;48.512;-2.780;2024-03-17T03:08:29;2.05;;;0.82;;
47455;SDS011;33202;48.512;-2.780;2024-03-17T03:10:55;2.93;;;0.80;;
47455;SDS011;33202;48.512;-2.780;2024-03-17T03:13:22;4.75;;;0.95;;
47455;SDS011;33202;48.512;-2.780;2024-03-17T03:15:48;3.60;;;0.80;;
47455;SDS011;33202;48.512;-2.780;2024-03-17T03:18:14;4.05;;;1.13;;
47455;SDS011;33202;48.512;-2.780;2024-03-17T03:20:40;3.13;;;0.65;;
47455;SDS011;33202;48.512;-2.780;2024-03-17T03:23:06;3.85;;;1.00;;
47455;SDS011;33202;48.512;-2.780;2024-03-17T03:25:32;3.55;;;0.63;;
47455;SDS011;33202;48.512;-2.780;2024-03-17T03:27:59;4.05;;;1.10;;
47455;SDS011;33202;48.512;-2.780;2024-03-17T03:30:26;4.82;;;1.10;;
47455;SDS011;33202;48.512;-2.780;2024-03-17T03:32:52;3.70;;;1.08;;
47455;SDS011;33202;48.512;-2.780;2024-03-17T03:35:18;1.55;;;0.65;;
47455;SDS011;33202;48.512;-2.780;2024-03-17T03:37:46;2.53;;;0.60;;
47455;SDS011;33202;48.512;-2.780;2024-03-17T03:40:12;3.47;;;0.95;;
47455;SDS011;33202;48.512;-2.780;2024-03-17T03:42:47;4.32;;;1.25;;
47455;SDS011;33202;48.512;-2.780;2024-03-17T03:45:13;3.53;;;0.85;;
47455;SDS011;33202;48.512;-2.780;2024-03-17T03:47:39;4.18;;;0.90;;
47455;SDS011;33202;48.512;-2.780;2024-03-17T03:50:15;2.47;;;0.77;;
47455;SDS011;33202;48.512;-2.780;2024-03-17T03:52:41;2.38;;;0.93;;
47455;SDS011;33202;48.512;-2.780;2024-03-17T03:55:08;3.08;;;1.15;;
47455;SDS011;33202;48.512;-2.780;2024-03-17T03:57:38;1.70;;;0.60;;
47455;SDS011;33202;48.512;-2.780;2024-03-17T04:00:04;2.15;;;0.60;;
47455;SDS011;33202;48.512;-2.780;2024-03-17T04:02:46;2.05;;;0.55;;
47455;SDS011;33202;48.512;-2.780;2024-03-17T04:05:12;5.85;;;1.10;;
47455;SDS011;33202;48.512;-2.780;2024-03-17T04:07:38;2.17;;;0.70;;
47455;SDS011;33202;48.512;-2.780;2024-03-17T04:10:05;3.75;;;0.80;;
47455;SDS011;33202;48.512;-2.780;2024-03-17T04:12:32;1.47;;;0.60;;
47455;SDS011;33202;48.512;-2.780;2024-03-17T04:14:58;2.45;;;0.40;;
47455;SDS011;33202;48.512;-2.780;2024-03-17T04:17:24;3.67;;;0.63;;
47455;SDS011;33202;48.512;-2.780;2024-03-17T04:19:53;1.77;;;0.70;;
47455;SDS011;33202;48.512;-2.780;2024-03-17T04:22:20;2.47;;;0.52;;
47455;SDS011;33202;48.512;-2.780;2024-03-17T04:24:47;1.77;;;0.50;;
47455;SDS011;33202;48.512;-2.780;2024-03-17T04:27:18;2.38;;;0.30;;
47455;SDS011;33202;48.512;-2.780;2024-03-17T04:29:46;1.20;;;0.30;;
47455;SDS011;33202;48.512;-2.780;2024-03-17T04:32:13;1.23;;;0.30;;
47455;SDS011;33202;48.512;-2.780;2024-03-17T04:34:39;0.93;;;0.30;;
47455;SDS011;33202;48.512;-2.780;2024-03-17T04:37:05;0.98;;;0.30;;
47455;SDS011;33202;48.512;-2.780;2024-03-17T04:39:31;1.73;;;0.30;;
47455;SDS011;33202;48.512;-2.780;2024-03-17T04:41:57;1.85;;;0.70;;
47455;SDS011;33202;48.512;-2.780;2024-03-17T04:44:23;0.52;;;0.17;;
47455;SDS011;33202;48.512;-2.780;2024-03-17T04:46:49;0.75;;;0.20;;
47455;SDS011;33202;48.512;-2.780;2024-03-17T04:49:15;0.70;;;0.20;;
47455;SDS011;33202;48.512;-2.780;2024-03-17T04:51:42;0.30;;;0.20;;
47455;SDS011;33202;48.512;-2.780;2024-03-17T04:54:08;0.40;;;0.10;;
47455;SDS011;33202;48.512;-2.780;2024-03-17T04:56:34;0.80;;;0.40;;
47455;SDS011;33202;48.512;-2.780;2024-03-17T04:59:00;1.60;;;0.32;;
47455;SDS011;33202;48.512;-2.780;2024-03-17T05:01:26;0.20;;;0.10;;
47455;SDS011;33202;48.512;-2.780;2024-03-17T05:03:52;0.85;;;0.20;;
47455;SDS011;33202;48.512;-2.780;2024-03-17T05:06:18;0.68;;;0.10;;
47455;SDS011;33202;48.512;-2.780;2024-03-17T05:08:44;0.32;;;0.20;;
47455;SDS011;33202;48.512;-2.780;2024-03-17T05:11:10;0.25;;;0.10;;
47455;SDS011;33202;48.512;-2.780;2024-03-17T05:13:37;0.20;;;0.10;;
47455;SDS011;33202;48.512;-2.780;2024-03-17T05:16:06;0.52;;;0.20;;
47455;SDS011;33202;48.512;-2.780;2024-03-17T05:18:32;0.28;;;0.10;;
47455;SDS011;33202;48.512;-2.780;2024-03-17T05:23:25;0.60;;;0.10;;
47455;SDS011;33202;48.512;-2.780;2024-03-17T05:25:52;0.38;;;0.10;;
47455;SDS011;33202;48.512;-2.780;2024-03-17T05:28:18;0.68;;;0.20;;
47455;SDS011;33202;48.512;-2.780;2024-03-17T05:30:44;0.27;;;0.00;;
47455;SDS011;33202;48.512;-2.780;2024-03-17T05:33:10;0.40;;;0.10;;
47455;SDS011;33202;48.512;-2.780;2024-03-17T05:35:36;0.03;;;0.03;;
47455;SDS011;33202;48.512;-2.780;2024-03-17T05:38:03;0.10;;;0.10;;
47455;SDS011;33202;48.512;-2.780;2024-03-17T05:40:29;0.10;;;0.10;;
47455;SDS011;33202;48.512;-2.780;2024-03-17T05:42:56;0.47;;;0.20;;
47455;SDS011;33202;48.512;-2.780;2024-03-17T05:45:22;0.20;;;0.10;;
47455;SDS011;33202;48.512;-2.780;2024-03-17T05:47:51;0.20;;;0.10;;
47455;SDS011;33202;48.512;-2.780;2024-03-17T05:50:17;0.00;;;0.00;;
47455;SDS011;33202;48.512;-2.780;2024-03-17T05:52:43;0.10;;;0.10;;
47455;SDS011;33202;48.512;-2.780;2024-03-17T05:55:09;0.00;;;0.00;;
47455;SDS011;33202;48.512;-2.780;2024-03-17T05:57:36;0.00;;;0.00;;
47455;SDS011;33202;48.512;-2.780;2024-03-17T06:00:02;0.93;;;0.32;;
47455;SDS011;33202;48.512;-2.780;2024-03-17T06:02:28;0.45;;;0.10;;
47455;SDS011;33202;48.512;-2.780;2024-03-17T06:04:55;0.25;;;0.10;;
47455;SDS011;33202;48.512;-2.780;2024-03-17T06:07:22;0.28;;;0.20;;
47455;SDS011;33202;48.512;-2.780;2024-03-17T06:09:48;0.60;;;0.20;;
47455;SDS011;33202;48.512;-2.780;2024-03-17T06:12:14;0.17;;;0.10;;
47455;SDS011;33202;48.512;-2.780;2024-03-17T06:14:40;1.00;;;0.10;;
47455;SDS011;33202;48.512;-2.780;2024-03-17T06:17:06;0.00;;;0.00;;
47455;SDS011;33202;48.512;-2.780;2024-03-17T06:19:33;0.20;;;0.00;;
47455;SDS011;33202;48.512;-2.780;2024-03-17T06:21:59;0.10;;;0.05;;
47455;SDS011;33202;48.512;-2.780;2024-03-17T06:24:25;0.10;;;0.00;;
47455;SDS011;33202;48.512;-2.780;2024-03-17T06:26:51;0.05;;;0.00;;
47455;SDS011;33202;48.512;-2.780;2024-03-17T06:29:17;0.10;;;0.10;;
47455;SDS011;33202;48.512;-2.780;2024-03-17T06:31:45;0.20;;;0.10;;
47455;SDS011;33202;48.512;-2.780;2024-03-17T06:34:12;0.20;;;0.10;;
47455;SDS011;33202;48.512;-2.780;2024-03-17T06:36:40;0.40;;;0.10;;
47455;SDS011;33202;48.512;-2.780;2024-03-17T06:39:07;0.30;;;0.10;;
47455;SDS011;33202;48.512;-2.780;2024-03-17T06:41:33;0.25;;;0.13;;
47455;SDS011;33202;48.512;-2.780;2024-03-17T06:43:59;0.10;;;0.10;;
47455;SDS011;33202;48.512;-2.780;2024-03-17T06:46:25;0.10;;;0.10;;
47455;SDS011;33202;48.512;-2.780;2024-03-17T06:48:51;0.35;;;0.10;;
47455;SDS011;33202;48.512;-2.780;2024-03-17T06:51:18;0.67;;;0.20;;
47455;SDS011;33202;48.512;-2.780;2024-03-17T06:53:44;1.38;;;0.20;;
47455;SDS011;33202;48.512;-2.780;2024-03-17T06:56:10;1.40;;;0.20;;
47455;SDS011;33202;48.512;-2.780;2024-03-17T06:58:36;0.22;;;0.20;;
47455;SDS011;33202;48.512;-2.780;2024-03-17T07:01:02;0.57;;;0.30;;
47455;SDS011;33202;48.512;-2.780;2024-03-17T07:03:30;0.90;;;0.43;;
47455;SDS011;33202;48.512;-2.780;2024-03-17T07:08:22;0.57;;;0.28;;
47455;SDS011;33202;48.512;-2.780;2024-03-17T07:10:58;1.08;;;0.40;;
47455;SDS011;33202;48.512;-2.780;2024-03-17T07:13:24;1.05;;;0.50;;
47455;SDS011;33202;48.512;-2.780;2024-03-17T07:15:50;0.82;;;0.30;;
47455;SDS011;33202;48.512;-2.780;2024-03-17T07:18:17;0.50;;;0.30;;
47455;SDS011;33202;48.512;-2.780;2024-03-17T07:20:42;1.95;;;0.43;;
47455;SDS011;33202;48.512;-2.780;2024-03-17T07:23:09;1.13;;;0.20;;
47455;SDS011;33202;48.512;-2.780;2024-03-17T07:25:35;0.47;;;0.20;;
47455;SDS011;33202;48.512;-2.780;2024-03-17T07:28:02;0.25;;;0.17;;
47455;SDS011;33202;48.512;-2.780;2024-03-17T07:30:28;0.43;;;0.20;;
47455;SDS011;33202;48.512;-2.780;2024-03-17T07:32:54;0.63;;;0.25;;
47455;SDS011;33202;48.512;-2.780;2024-03-17T07:35:20;0.20;;;0.17;;
47455;SDS011;33202;48.512;-2.780;2024-03-17T07:37:46;0.25;;;0.10;;
47455;SDS011;33202;48.512;-2.780;2024-03-17T07:40:12;0.20;;;0.10;;
47455;SDS011;33202;48.512;-2.780;2024-03-17T07:42:40;0.70;;;0.30;;
47455;SDS011;33202;48.512;-2.780;2024-03-17T07:45:07;0.50;;;0.30;;
47455;SDS011;33202;48.512;-2.780;2024-03-17T07:47:33;1.83;;;0.20;;
47455;SDS011;33202;48.512;-2.780;2024-03-17T07:50:04;0.40;;;0.30;;
47455;SDS011;33202;48.512;-2.780;2024-03-17T07:52:33;0.43;;;0.20;;
47455;SDS011;33202;48.512;-2.780;2024-03-17T07:54:59;0.30;;;0.10;;
47455;SDS011;33202;48.512;-2.780;2024-03-17T07:57:25;1.75;;;0.20;;
47455;SDS011;33202;48.512;-2.780;2024-03-17T07:59:52;0.47;;;0.20;;
47455;SDS011;33202;48.512;-2.780;2024-03-17T08:02:18;1.00;;;0.20;;
47455;SDS011;33202;48.512;-2.780;2024-03-17T08:04:44;0.50;;;0.10;;
47455;SDS011;33202;48.512;-2.780;2024-03-17T08:07:10;0.80;;;0.30;;
47455;SDS011;33202;48.512;-2.780;2024-03-17T08:09:36;0.40;;;0.20;;
47455;SDS011;33202;48.512;-2.780;2024-03-17T08:12:02;2.50;;;0.30;;
47455;SDS011;33202;48.512;-2.780;2024-03-17T08:14:29;1.80;;;0.32;;
47455;SDS011;33202;48.512;-2.780;2024-03-17T08:16:55;0.75;;;0.30;;
47455;SDS011;33202;48.512;-2.780;2024-03-17T08:19:21;0.50;;;0.20;;
47455;SDS011;33202;48.512;-2.780;2024-03-17T08:21:47;0.73;;;0.30;;
47455;SDS011;33202;48.512;-2.780;2024-03-17T08:24:14;1.35;;;0.30;;
47455;SDS011;33202;48.512;-2.780;2024-03-17T08:26:40;1.23;;;0.50;;
47455;SDS011;33202;48.512;-2.780;2024-03-17T08:29:06;0.52;;;0.22;;
47455;SDS011;33202;48.512;-2.780;2024-03-17T08:31:33;0.45;;;0.30;;
47455;SDS011;33202;48.512;-2.780;2024-03-17T08:33:59;0.98;;;0.35;;
47455;SDS011;33202;48.512;-2.780;2024-03-17T08:36:25;1.05;;;0.40;;
47455;SDS011;33202;48.512;-2.780;2024-03-17T08:38:52;1.88;;;0.30;;
47455;SDS011;33202;48.512;-2.780;2024-03-17T08:41:20;2.55;;;0.32;;
47455;SDS011;33202;48.512;-2.780;2024-03-17T08:43:46;1.70;;;0.40;;
47455;SDS011;33202;48.512;-2.780;2024-03-17T08:46:12;1.30;;;0.55;;
47455;SDS011;33202;48.512;-2.780;2024-03-17T08:48:39;0.73;;;0.40;;
47455;SDS011;33202;48.512;-2.780;2024-03-17T08:51:06;0.43;;;0.25;;
47455;SDS011;33202;48.512;-2.780;2024-03-17T08:53:32;2.35;;;0.30;;
47455;SDS011;33202;48.512;-2.780;2024-03-17T08:55:59;1.10;;;0.30;;
47455;SDS011;33202;48.512;-2.780;2024-03-17T08:58:25;1.40;;;0.40;;
47455;SDS011;33202;48.512;-2.780;2024-03-17T09:00:51;0.40;;;0.20;;
47455;SDS011;33202;48.512;-2.780;2024-03-17T09:03:19;0.43;;;0.30;;
47455;SDS011;33202;48.512;-2.780;2024-03-17T09:05:46;1.30;;;0.30;;
47455;SDS011;33202;48.512;-2.780;2024-03-17T09:08:19;0.73;;;0.30;;
47455;SDS011;33202;48.512;-2.780;2024-03-17T09:10:47;0.52;;;0.30;;
47455;SDS011;33202;48.512;-2.780;2024-03-17T09:13:14;2.25;;;0.40;;
47455;SDS011;33202;48.512;-2.780;2024-03-17T09:15:40;1.33;;;0.65;;
47455;SDS011;33202;48.512;-2.780;2024-03-17T09:18:06;1.45;;;0.65;;
47455;SDS011;33202;48.512;-2.780;2024-03-17T09:20:32;2.55;;;0.60;;
47455;SDS011;33202;48.512;-2.780;2024-03-17T09:22:58;0.82;;;0.50;;
47455;SDS011;33202;48.512;-2.780;2024-03-17T09:25:24;0.82;;;0.40;;
47455;SDS011;33202;48.512;-2.780;2024-03-17T09:27:51;0.47;;;0.20;;
47455;SDS011;33202;48.512;-2.780;2024-03-17T09:30:17;0.98;;;0.30;;
47455;SDS011;33202;48.512;-2.780;2024-03-17T09:32:43;0.65;;;0.35;;
47455;SDS011;33202;48.512;-2.780;2024-03-17T09:35:09;0.73;;;0.50;;
47455;SDS011;33202;48.512;-2.780;2024-03-17T09:37:36;2.03;;;0.40;;
47455;SDS011;33202;48.512;-2.780;2024-03-17T09:40:02;0.57;;;0.40;;
47455;SDS011;33202;48.512;-2.780;2024-03-17T09:42:31;2.40;;;0.85;;
47455;SDS011;33202;48.512;-2.780;2024-03-17T09:44:57;1.48;;;0.57;;
47455;SDS011;33202;48.512;-2.780;2024-03-17T09:47:24;1.83;;;0.40;;
47455;SDS011;33202;48.512;-2.780;2024-03-17T09:49:51;0.93;;;0.32;;
47455;SDS011;33202;48.512;-2.780;2024-03-17T09:52:24;2.97;;;0.35;;
47455;SDS011;33202;48.512;-2.780;2024-03-17T09:55:01;2.05;;;0.30;;
47455;SDS011;33202;48.512;-2.780;2024-03-17T09:57:27;0.70;;;0.40;;
47455;SDS011;33202;48.512;-2.780;2024-03-17T09:59:54;1.67;;;0.20;;
47455;SDS011;33202;48.512;-2.780;2024-03-17T10:02:20;0.95;;;0.25;;
47455;SDS011;33202;48.512;-2.780;2024-03-17T10:04:46;1.27;;;0.43;;
47455;SDS011;33202;48.512;-2.780;2024-03-17T10:07:12;1.45;;;0.40;;
47455;SDS011;33202;48.512;-2.780;2024-03-17T10:09:42;1.42;;;0.38;;
47455;SDS011;33202;48.512;-2.780;2024-03-17T10:12:27;1.40;;;0.50;;
47455;SDS011;33202;48.512;-2.780;2024-03-17T10:15:00;0.90;;;0.50;;
47455;SDS011;33202;48.512;-2.780;2024-03-17T10:17:29;2.20;;;0.65;;
47455;SDS011;33202;48.512;-2.780;2024-03-17T10:22:40;1.73;;;0.50;;
47455;SDS011;33202;48.512;-2.780;2024-03-17T10:25:06;0.68;;;0.30;;
47455;SDS011;33202;48.512;-2.780;2024-03-17T10:27:34;1.50;;;0.50;;
47455;SDS011;33202;48.512;-2.780;2024-03-17T10:30:00;1.60;;;0.50;;
47455;SDS011;33202;48.512;-2.780;2024-03-17T10:32:26;2.15;;;0.40;;
47455;SDS011;33202;48.512;-2.780;2024-03-17T10:34:53;1.10;;;0.40;;
47455;SDS011;33202;48.512;-2.780;2024-03-17T10:37:20;1.27;;;0.55;;
47455;SDS011;33202;48.512;-2.780;2024-03-17T10:39:52;2.47;;;0.40;;
47455;SDS011;33202;48.512;-2.780;2024-03-17T10:42:26;1.52;;;0.63;;
47455;SDS011;33202;48.512;-2.780;2024-03-17T10:44:53;1.67;;;0.80;;
47455;SDS011;33202;48.512;-2.780;2024-03-17T10:49:47;2.08;;;0.70;;
47455;SDS011;33202;48.512;-2.780;2024-03-17T10:52:15;1.63;;;0.80;;
47455;SDS011;33202;48.512;-2.780;2024-03-17T10:54:48;1.30;;;0.93;;
47455;SDS011;33202;48.512;-2.780;2024-03-17T10:59:41;2.47;;;0.70;;
47455;SDS011;33202;48.512;-2.780;2024-03-17T11:02:28;3.08;;;0.80;;
47455;SDS011;33202;48.512;-2.780;2024-03-17T11:04:58;0.93;;;0.43;;
47455;SDS011;33202;48.512;-2.780;2024-03-17T11:07:24;1.25;;;0.60;;
47455;SDS011;33202;48.512;-2.780;2024-03-17T11:09:52;1.45;;;0.57;;
47455;SDS011;33202;48.512;-2.780;2024-03-17T11:17:47;0.90;;;0.40;;
47455;SDS011;33202;48.512;-2.780;2024-03-17T11:20:15;1.90;;;0.40;;
47455;SDS011;33202;48.512;-2.780;2024-03-17T11:22:48;1.77;;;0.52;;
47455;SDS011;33202;48.512;-2.780;2024-03-17T11:27:49;1.33;;;0.50;;
47455;SDS011;33202;48.512;-2.780;2024-03-17T11:33:00;1.42;;;0.50;;
47455;SDS011;33202;48.512;-2.780;2024-03-17T11:35:26;1.10;;;0.60;;
47455;SDS011;33202;48.512;-2.780;2024-03-17T11:37:52;1.65;;;0.73;;
47455;SDS011;33202;48.512;-2.780;2024-03-17T11:40:24;1.10;;;0.70;;
47455;SDS011;33202;48.512;-2.780;2024-03-17T11:43:02;3.95;;;1.08;;
47455;SDS011;33202;48.512;-2.780;2024-03-17T11:45:31;1.60;;;0.95;;
47455;SDS011;33202;48.512;-2.780;2024-03-17T11:47:56;4.10;;;0.90;;
47455;SDS011;33202;48.512;-2.780;2024-03-17T11:50:23;1.23;;;0.60;;
47455;SDS011;33202;48.512;-2.780;2024-03-17T11:52:59;1.42;;;0.60;;
47455;SDS011;33202;48.512;-2.780;2024-03-17T11:55:25;1.63;;;0.80;;
47455;SDS011;33202;48.512;-2.780;2024-03-17T11:57:57;3.60;;;1.60;;
47455;SDS011;33202;48.512;-2.780;2024-03-17T12:00:23;1.98;;;0.98;;
47455;SDS011;33202;48.512;-2.780;2024-03-17T12:05:16;4.72;;;2.40;;
47455;SDS011;33202;48.512;-2.780;2024-03-17T12:07:43;6.00;;;3.33;;
47455;SDS011;33202;48.512;-2.780;2024-03-17T12:10:12;5.15;;;2.53;;
47455;SDS011;33202;48.512;-2.780;2024-03-17T12:12:41;1.95;;;0.90;;
47455;SDS011;33202;48.512;-2.780;2024-03-17T12:15:16;1.25;;;0.68;;
47455;SDS011;33202;48.512;-2.780;2024-03-17T12:17:43;1.65;;;0.95;;
47455;SDS011;33202;48.512;-2.780;2024-03-17T12:20:18;3.05;;;2.00;;
47455;SDS011;33202;48.512;-2.780;2024-03-17T12:22:45;3.33;;;1.80;;
47455;SDS011;33202;48.512;-2.780;2024-03-17T12:25:18;2.90;;;1.40;;
47455;SDS011;33202;48.512;-2.780;2024-03-17T12:27:45;2.15;;;0.50;;
47455;SDS011;33202;48.512;-2.780;2024-03-17T12:30:11;2.13;;;0.60;;
47455;SDS011;33202;48.512;-2.780;2024-03-17T12:32:37;1.60;;;0.30;;
47455;SDS011;33202;48.512;-2.780;2024-03-17T12:35:04;1.88;;;0.32;;
47455;SDS011;33202;48.512;-2.780;2024-03-17T12:37:37;2.38;;;0.40;;
47455;SDS011;33202;48.512;-2.780;2024-03-17T12:40:05;2.15;;;0.50;;
47455;SDS011;33202;48.512;-2.780;2024-03-17T12:42:32;1.17;;;0.40;;
47455;SDS011;33202;48.512;-2.780;2024-03-17T12:44:58;1.10;;;0.40;;
47455;SDS011;33202;48.512;-2.780;2024-03-17T12:47:29;3.35;;;0.68;;
47455;SDS011;33202;48.512;-2.780;2024-03-17T12:49:59;0.95;;;0.30;;
47455;SDS011;33202;48.512;-2.780;2024-03-17T12:52:29;1.83;;;0.40;;
47455;SDS011;33202;48.512;-2.780;2024-03-17T12:54:58;1.15;;;0.30;;
47455;SDS011;33202;48.512;-2.780;2024-03-17T12:57:43;0.47;;;0.30;;
47455;SDS011;33202;48.512;-2.780;2024-03-17T13:00:28;0.85;;;0.25;;
47455;SDS011;33202;48.512;-2.780;2024-03-17T13:03:07;1.70;;;0.40;;
47455;SDS011;33202;48.512;-2.780;2024-03-17T13:05:33;0.70;;;0.30;;
47455;SDS011;33202;48.512;-2.780;2024-03-17T13:08:00;3.28;;;0.80;;
47455;SDS011;33202;48.512;-2.780;2024-03-17T13:10:27;3.08;;;0.55;;
47455;SDS011;33202;48.512;-2.780;2024-03-17T13:13:01;1.48;;;0.38;;
47455;SDS011;33202;48.512;-2.780;2024-03-17T13:15:27;3.67;;;0.60;;
47455;SDS011;33202;48.512;-2.780;2024-03-17T13:17:56;1.80;;;0.50;;
47455;SDS011;33202;48.512;-2.780;2024-03-17T13:20:22;3.03;;;0.43;;
47455;SDS011;33202;48.512;-2.780;2024-03-17T13:22:48;0.90;;;0.32;;
47455;SDS011;33202;48.512;-2.780;2024-03-17T13:27:41;1.95;;;0.50;;
47455;SDS011;33202;48.512;-2.780;2024-03-17T13:30:11;1.23;;;0.35;;
47455;SDS011;33202;48.512;-2.780;2024-03-17T13:32:37;2.45;;;0.28;;
47455;SDS011;33202;48.512;-2.780;2024-03-17T13:35:05;1.48;;;0.40;;
47455;SDS011;33202;48.512;-2.780;2024-03-17T13:37:33;0.85;;;0.20;;
47455;SDS011;33202;48.512;-2.780;2024-03-17T13:42:28;2.13;;;0.38;;
47455;SDS011;33202;48.512;-2.780;2024-03-17T13:44:54;1.35;;;0.55;;
47455;SDS011;33202;48.512;-2.780;2024-03-17T13:47:21;2.15;;;0.50;;
47455;SDS011;33202;48.512;-2.780;2024-03-17T13:49:47;1.63;;;0.40;;
47455;SDS011;33202;48.512;-2.780;2024-03-17T13:52:13;2.80;;;0.50;;
47455;SDS011;33202;48.512;-2.780;2024-03-17T13:54:39;1.88;;;0.50;;
47455;SDS011;33202;48.512;-2.780;2024-03-17T13:57:05;2.95;;;1.00;;
47455;SDS011;33202;48.512;-2.780;2024-03-17T13:59:31;2.40;;;0.50;;
47455;SDS011;33202;48.512;-2.780;2024-03-17T14:01:57;2.90;;;0.65;;
47455;SDS011;33202;48.512;-2.780;2024-03-17T14:04:23;2.10;;;0.20;;
47455;SDS011;33202;48.512;-2.780;2024-03-17T14:06:50;3.50;;;0.45;;
47455;SDS011;33202;48.512;-2.780;2024-03-17T14:09:16;1.30;;;0.30;;
47455;SDS011;33202;48.512;-2.780;2024-03-17T14:11:47;3.70;;;0.40;;
47455;SDS011;33202;48.512;-2.780;2024-03-17T14:14:15;3.17;;;0.50;;
47455;SDS011;33202;48.512;-2.780;2024-03-17T14:16:42;3.47;;;0.40;;
47455;SDS011;33202;48.512;-2.780;2024-03-17T14:21:35;3.50;;;0.60;;
47455;SDS011;33202;48.512;-2.780;2024-03-17T14:24:01;4.03;;;0.60;;
47455;SDS011;33202;48.512;-2.780;2024-03-17T14:26:31;2.60;;;0.47;;
47455;SDS011;33202;48.512;-2.780;2024-03-17T14:28:57;1.73;;;0.40;;
47455;SDS011;33202;48.512;-2.780;2024-03-17T14:31:25;1.48;;;0.52;;
47455;SDS011;33202;48.512;-2.780;2024-03-17T14:33:51;1.50;;;0.40;;
47455;SDS011;33202;48.512;-2.780;2024-03-17T14:36:17;2.92;;;0.60;;
47455;SDS011;33202;48.512;-2.780;2024-03-17T14:41:10;2.80;;;0.60;;
47455;SDS011;33202;48.512;-2.780;2024-03-17T14:43:37;1.67;;;0.30;;
47455;SDS011;33202;48.512;-2.780;2024-03-17T14:46:04;2.20;;;0.40;;
47455;SDS011;33202;48.512;-2.780;2024-03-17T14:48:33;2.42;;;0.47;;
47455;SDS011;33202;48.512;-2.780;2024-03-17T14:50:59;2.58;;;0.50;;
47455;SDS011;33202;48.512;-2.780;2024-03-17T14:53:25;2.67;;;0.77;;
47455;SDS011;33202;48.512;-2.780;2024-03-17T14:55:51;3.10;;;0.40;;
47455;SDS011;33202;48.512;-2.780;2024-03-17T14:58:18;2.03;;;0.40;;
47455;SDS011;33202;48.512;-2.780;2024-03-17T15:00:44;1.30;;;0.35;;
47455;SDS011;33202;48.512;-2.780;2024-03-17T15:05:37;2.28;;;0.55;;
47455;SDS011;33202;48.512;-2.780;2024-03-17T15:08:03;1.88;;;0.22;;
47455;SDS011;33202;48.512;-2.780;2024-03-17T15:10:29;1.20;;;0.40;;
47455;SDS011;33202;48.512;-2.780;2024-03-17T15:12:55;1.10;;;0.32;;
47455;SDS011;33202;48.512;-2.780;2024-03-17T15:15:21;2.63;;;0.60;;